createdAt,value
2019-05-29T00:02:24.222Z,99849.69
2019-05-29T00:04:54.451Z,99854.25
2019-05-29T00:07:24.669Z,99856.40
2019-05-29T00:09:54.968Z,99861.16
2019-05-29T00:12:25.240Z,99868.05
2019-05-29T00:14:55.505Z,99868.94
2019-05-29T00:17:25.777Z,99871.99
2019-05-29T00:19:55.994Z,99871.52
2019-05-29T00:22:26.170Z,99875.93
2019-05-29T00:24:56.405Z,99880.21
2019-05-29T00:27:26.685Z,99885.92
2019-05-29T00:29:56.998Z,99883.09
2019-05-29T00:32:27.272Z,99888.17
2019-05-29T00:34:57.579Z,99890.61
2019-05-29T00:37:27.843Z,99889.86
2019-05-29T00:39:58.126Z,99888.38
2019-05-29T00:42:28.395Z,99889.69
2019-05-29T00:44:58.709Z,99893.56
2019-05-29T00:47:28.916Z,99899.55
2019-05-29T00:49:59.120Z,99900.47
2019-05-29T00:52:29.322Z,99902.05
2019-05-29T00:54:59.544Z,99904.98
2019-05-29T00:57:29.745Z,99901.83
2019-05-29T00:59:59.958Z,99904.53
2019-05-29T01:02:30.176Z,99909.01
2019-05-29T01:05:00.390Z,99909.14
2019-05-29T01:07:30.583Z,99914.98
2019-05-29T01:10:00.873Z,99915.53
2019-05-29T01:12:31.137Z,99920.15
2019-05-29T01:15:01.346Z,99930.31
2019-05-29T01:17:31.619Z,99939.47
2019-05-29T01:20:01.833Z,99941.91
2019-05-29T01:22:32.270Z,99942.21
2019-05-29T01:25:02.500Z,99943.58
2019-05-29T01:27:32.709Z,99945.70
2019-05-29T01:30:02.957Z,99945.55
2019-05-29T01:32:33.369Z,99950.57
2019-05-29T01:35:05.482Z,99952.50
2019-05-29T01:37:35.676Z,99950.00
2019-05-29T01:40:19.169Z,99953.84
2019-05-29T01:42:39.417Z,99949.28
2019-05-29T01:45:09.640Z,99957.50
2019-05-29T01:47:39.822Z,99960.11
2019-05-29T01:50:10.324Z,99960.30
2019-05-29T01:52:40.527Z,99967.16
2019-05-29T01:55:11.331Z,99965.30
2019-05-29T01:57:41.536Z,99969.66
2019-05-29T02:00:11.771Z,99967.90
2019-05-29T02:02:42.168Z,99970.80
2019-05-29T02:05:12.363Z,99977.99
2019-05-29T02:07:43.647Z,99986.52
2019-05-29T02:10:13.857Z,99986.84
2019-05-29T02:12:44.055Z,99987.15
2019-05-29T02:15:24.890Z,99992.48
2019-05-29T02:17:46.205Z,99997.38
2019-05-29T02:20:16.910Z,100002.14
2019-05-29T02:22:47.290Z,100002.63
2019-05-29T02:25:19.672Z,100003.77
2019-05-29T02:27:50.932Z,99997.23
2019-05-29T02:30:22.991Z,100000.33
2019-05-29T02:32:53.049Z,100002.06
2019-05-29T02:35:24.796Z,100005.53
2019-05-29T02:37:55.244Z,100013.72
2019-05-29T02:40:27.890Z,100012.31
2019-05-29T02:42:57.442Z,100018.81
2019-05-29T02:45:50.671Z,100021.34
2019-05-29T02:47:59.631Z,100028.06
2019-05-29T02:50:31.214Z,100026.57
2019-05-29T02:53:01.640Z,100028.50
2019-05-29T02:55:31.832Z,100029.97
2019-05-29T02:58:02.066Z,100034.02
2019-05-29T03:00:49.380Z,100038.28
2019-05-29T03:03:21.584Z,100039.51
2019-05-29T03:05:54.227Z,100039.58
2019-05-29T03:08:24.882Z,100041.94
2019-05-29T03:10:56.351Z,100043.17
2019-05-29T03:13:27.659Z,100043.87
2019-05-29T03:16:10.568Z,100047.50
2019-05-29T03:18:32.409Z,100055.25
2019-05-29T03:21:02.649Z,100053.81
2019-05-29T03:23:33.962Z,100059.41
2019-05-29T03:26:04.767Z,100058.67
2019-05-29T03:28:35.297Z,100062.76
2019-05-29T03:31:05.587Z,100062.02
2019-05-29T03:33:47.110Z,100072.02
2019-05-29T03:36:07.727Z,100074.13
2019-05-29T03:38:38.621Z,100080.33
2019-05-29T03:41:08.910Z,100083.44
2019-05-29T03:43:39.099Z,100091.53
2019-05-29T03:46:26.424Z,100085.86
2019-05-29T03:48:41.210Z,100086.10
2019-05-29T03:51:12.473Z,100093.29
2019-05-29T03:53:43.246Z,100097.78
2019-05-29T03:56:13.441Z,100100.40
2019-05-29T03:58:43.661Z,100107.19
2019-05-29T04:01:13.859Z,100111.38
2019-05-29T04:03:44.221Z,100112.55
2019-05-29T04:06:14.399Z,100115.91
2019-05-29T04:08:44.629Z,100117.04
2019-05-29T04:11:15.889Z,100117.67
2019-05-29T04:13:46.183Z,100124.50
2019-05-29T04:16:16.379Z,100124.16
2019-05-29T04:18:46.704Z,100126.83
2019-05-29T04:21:16.889Z,100129.16
2019-05-29T04:23:47.656Z,100132.32
2019-05-29T04:26:17.876Z,100138.48
2019-05-29T04:28:48.585Z,100143.36
2019-05-29T04:31:18.817Z,100143.64
2019-05-29T04:33:49.014Z,100139.93
2019-05-29T04:36:19.242Z,100148.75
2019-05-29T04:38:49.533Z,100148.67
2019-05-29T04:41:19.743Z,100159.95
2019-05-29T04:43:49.945Z,100161.67
2019-05-29T04:46:20.233Z,100164.03
2019-05-29T04:48:50.433Z,100168.22
2019-05-29T04:51:20.707Z,100173.27
2019-05-29T04:53:50.912Z,100185.10
2019-05-29T04:56:21.207Z,100186.49
2019-05-29T04:58:51.407Z,100180.56
2019-05-29T05:01:21.653Z,100191.27
2019-05-29T05:03:51.991Z,100191.97
2019-05-29T05:06:22.205Z,100195.03
2019-05-29T05:08:52.404Z,100193.72
2019-05-29T05:11:22.634Z,100200.55
2019-05-29T05:13:52.833Z,100202.13
2019-05-29T05:16:24.028Z,100203.06
2019-05-29T05:18:54.225Z,100205.84
2019-05-29T05:21:24.442Z,100214.58
2019-05-29T05:23:54.657Z,100213.17
2019-05-29T05:26:25.002Z,100217.16
2019-05-29T05:28:55.263Z,100222.48
2019-05-29T05:31:25.549Z,100226.17
2019-05-29T05:33:55.763Z,100229.05
2019-05-29T05:36:25.984Z,100230.72
2019-05-29T05:38:56.207Z,100237.95
2019-05-29T05:41:26.426Z,100236.48
2019-05-29T05:43:56.669Z,100243.30
2019-05-29T05:46:26.875Z,100248.06
2019-05-29T05:48:57.104Z,100251.45
2019-05-29T05:51:27.295Z,100258.30
2019-05-29T05:53:57.532Z,100261.95
2019-05-29T05:56:27.749Z,100264.45
2019-05-29T05:58:58.012Z,100268.73
2019-05-29T06:01:28.228Z,100273.27
2019-05-29T06:03:58.484Z,100275.81
2019-05-29T06:06:28.752Z,100278.86
2019-05-29T06:08:58.985Z,100285.34
2019-05-29T06:11:29.198Z,100283.12
2019-05-29T06:13:59.424Z,100280.53
2019-05-29T06:16:29.646Z,100287.84
2019-05-29T06:18:59.852Z,100279.77
2019-05-29T06:21:30.066Z,100285.88
2019-05-29T06:24:00.351Z,100289.02
2019-05-29T06:26:30.565Z,100292.78
2019-05-29T06:29:00.870Z,100299.16
2019-05-29T06:31:33.235Z,100297.83
2019-05-29T06:34:03.714Z,100308.59
2019-05-29T06:36:33.926Z,100309.25
2019-05-29T06:39:06.071Z,100310.97
2019-05-29T06:41:36.296Z,100317.54
2019-05-29T06:44:06.550Z,100315.19
2019-05-29T06:46:38.230Z,100324.44
2019-05-29T06:49:08.666Z,100322.98
2019-05-29T06:51:39.308Z,100327.89
2019-05-29T06:54:12.351Z,100319.97
2019-05-29T06:56:43.768Z,100325.97
2019-05-29T06:59:15.216Z,100330.30
2019-05-29T07:01:47.584Z,100330.69
2019-05-29T07:04:17.995Z,100338.41
2019-05-29T07:06:48.208Z,100342.37
2019-05-29T07:09:18.438Z,100353.44
2019-05-29T07:11:48.630Z,100350.77
2019-05-29T07:14:18.909Z,100357.64
2019-05-29T07:16:55.519Z,100357.61
2019-05-29T07:19:32.780Z,100365.85
2019-05-29T07:21:52.991Z,100370.53
2019-05-29T07:24:23.264Z,100369.88
2019-05-29T07:26:53.469Z,100373.42
2019-05-29T07:29:23.741Z,100374.17
2019-05-29T07:31:54.071Z,100376.35
2019-05-29T07:34:26.689Z,100380.03
2019-05-29T07:36:56.917Z,100382.80
2019-05-29T07:39:27.157Z,100384.61
2019-05-29T07:41:57.435Z,100388.77
2019-05-29T07:44:27.745Z,100395.64
2019-05-29T07:46:58.048Z,100398.08
2019-05-29T07:49:38.472Z,100400.32
2019-05-29T07:52:00.245Z,100397.84
2019-05-29T07:54:30.519Z,100402.36
2019-05-29T07:57:00.744Z,100396.02
2019-05-29T07:59:30.950Z,100401.17
2019-05-29T08:02:01.253Z,100396.81
2019-05-29T08:04:31.537Z,100396.86
2019-05-29T08:07:01.851Z,100396.85
2019-05-29T08:09:32.077Z,100402.38
2019-05-29T08:12:02.394Z,100406.63
2019-05-29T08:14:32.673Z,100406.68
2019-05-29T08:17:02.978Z,100405.28
2019-05-29T08:19:33.388Z,100404.12
2019-05-29T08:22:03.625Z,100403.93
2019-05-29T08:24:33.827Z,100411.24
2019-05-29T08:27:04.078Z,100412.92
2019-05-29T08:29:34.354Z,100417.03
2019-05-29T08:32:05.371Z,100422.26
2019-05-29T08:34:35.589Z,100421.84
2019-05-29T08:37:07.462Z,100425.08
2019-05-29T08:39:37.904Z,100429.26
2019-05-29T08:42:22.651Z,100434.41
2019-05-29T08:44:41.246Z,100429.55
2019-05-29T08:47:11.638Z,100428.16
2019-05-29T08:49:41.856Z,100428.84
2019-05-29T08:52:12.670Z,100428.19
2019-05-29T08:54:43.977Z,100429.14
2019-05-29T08:57:14.335Z,100426.02
2019-05-29T08:59:44.611Z,100428.96
2019-05-29T09:02:14.935Z,100431.53
2019-05-29T09:04:47.469Z,100431.97
2019-05-29T09:07:17.148Z,100436.28
2019-05-29T09:09:47.348Z,100439.35
2019-05-29T09:12:17.717Z,100443.56
2019-05-29T09:14:47.918Z,100449.11
2019-05-29T09:17:18.497Z,100452.17
2019-05-29T09:19:48.934Z,100457.32
2019-05-29T09:22:19.201Z,100458.72
2019-05-29T09:24:49.399Z,100457.95
2019-05-29T09:27:19.721Z,100457.45
2019-05-29T09:29:49.986Z,100462.33
2019-05-29T09:32:40.732Z,100459.66
2019-05-29T09:34:52.227Z,100459.11
2019-05-29T09:37:22.503Z,100458.77
2019-05-29T09:39:52.757Z,100458.28
2019-05-29T09:42:23.721Z,100465.61
2019-05-29T09:44:55.184Z,100460.03
2019-05-29T09:47:26.379Z,100465.84
2019-05-29T09:49:56.827Z,100471.00
2019-05-29T09:52:30.493Z,100464.70
2019-05-29T09:55:00.230Z,100465.39
2019-05-29T09:57:30.652Z,100462.88
2019-05-29T10:00:02.219Z,100462.13
2019-05-29T10:02:33.438Z,100463.45
2019-05-29T10:05:05.411Z,100467.19
2019-05-29T10:07:35.628Z,100471.95
2019-05-29T10:10:13.518Z,100469.89
2019-05-29T10:12:43.743Z,100465.63
2019-05-29T10:15:13.939Z,100468.20
2019-05-29T10:17:44.243Z,100464.47
2019-05-29T10:20:14.704Z,100467.25
2019-05-29T10:22:45.146Z,100473.44
2019-05-29T10:25:15.496Z,100478.67
2019-05-29T10:27:45.793Z,100481.26
2019-05-29T10:30:17.678Z,100477.66
2019-05-29T10:32:48.246Z,100473.39
2019-05-29T10:35:18.566Z,100474.02
2019-05-29T10:37:48.788Z,100475.88
2019-05-29T10:40:19.040Z,100474.50
2019-05-29T10:42:49.354Z,100476.95
2019-05-29T10:45:19.585Z,100475.30
2019-05-29T10:47:49.925Z,100477.50
2019-05-29T10:50:20.262Z,100474.16
2019-05-29T10:52:50.536Z,100475.80
2019-05-29T10:55:23.132Z,100474.34
2019-05-29T10:57:54.968Z,100467.16
2019-05-29T11:00:25.601Z,100470.52
2019-05-29T11:02:57.726Z,100475.03
2019-05-29T11:05:28.134Z,100473.36
2019-05-29T11:07:58.313Z,100475.14
2019-05-29T11:10:28.637Z,100473.39
2019-05-29T11:12:58.840Z,100473.55
2019-05-29T11:15:31.785Z,100474.67
2019-05-29T11:18:02.000Z,100471.13
2019-05-29T11:20:32.214Z,100470.78
2019-05-29T11:23:02.413Z,100472.55
2019-05-29T11:25:32.622Z,100463.75
2019-05-29T11:28:02.825Z,100464.38
2019-05-29T11:30:33.128Z,100460.91
2019-05-29T11:33:03.375Z,100465.09
2019-05-29T11:35:33.633Z,100467.20
2019-05-29T11:38:03.835Z,100468.92
2019-05-29T11:40:34.188Z,100468.36
2019-05-29T11:43:04.381Z,100463.02
2019-05-29T11:45:35.787Z,100465.49
2019-05-29T11:48:06.395Z,100476.03
2019-05-29T11:50:36.827Z,100478.13
2019-05-29T11:53:08.140Z,100477.41
2019-05-29T11:55:38.403Z,100481.15
2019-05-29T11:58:08.672Z,100483.75
2019-05-29T12:00:38.939Z,100489.23
2019-05-29T12:03:09.172Z,100489.84
2019-05-29T12:05:39.417Z,100496.42
2019-05-29T12:08:09.602Z,100495.20
2019-05-29T12:10:39.828Z,100488.72
2019-05-29T12:13:10.350Z,100486.99
2019-05-29T12:15:41.019Z,100488.08
2019-05-29T12:18:23.685Z,100495.05
2019-05-29T12:20:43.836Z,100490.72
2019-05-29T12:23:25.976Z,100482.77
2019-05-29T12:25:45.953Z,100489.18
2019-05-29T12:28:16.222Z,100491.08
2019-05-29T12:30:46.496Z,100488.67
2019-05-29T12:33:16.730Z,100491.76
2019-05-29T12:35:50.085Z,100496.04
2019-05-29T12:38:18.950Z,100495.20
2019-05-29T12:40:49.240Z,100493.70
2019-05-29T12:43:27.091Z,100496.27
2019-05-29T12:45:51.614Z,100501.23
2019-05-29T12:48:21.917Z,100497.30
2019-05-29T12:50:53.894Z,100491.25
2019-05-29T12:53:30.343Z,100494.46
2019-05-29T12:55:56.317Z,100494.16
2019-05-29T12:58:27.608Z,100495.17
2019-05-29T13:00:58.568Z,100497.51
2019-05-29T13:03:29.030Z,100496.62
2019-05-29T13:06:00.288Z,100494.94
2019-05-29T13:08:30.653Z,100499.66
2019-05-29T13:11:00.850Z,100498.81
2019-05-29T13:13:31.128Z,100498.98
2019-05-29T13:16:02.892Z,100502.77
2019-05-29T13:18:33.468Z,100499.84
2019-05-29T13:21:03.658Z,100500.66
2019-05-29T13:23:44.621Z,100500.52
2019-05-29T13:26:05.856Z,100505.21
2019-05-29T13:28:36.156Z,100506.66
2019-05-29T13:31:06.858Z,100503.84
2019-05-29T13:33:37.363Z,100505.34
2019-05-29T13:36:07.540Z,100509.86
2019-05-29T13:38:37.905Z,100517.45
2019-05-29T13:41:08.189Z,100517.08
2019-05-29T13:43:38.461Z,100510.52
2019-05-29T13:46:08.670Z,100512.46
2019-05-29T13:48:38.903Z,100517.33
2019-05-29T13:51:09.089Z,100513.09
2019-05-29T13:53:39.351Z,100509.50
2019-05-29T13:56:09.558Z,100504.63
2019-05-29T13:58:39.854Z,100513.08
2019-05-29T14:01:10.059Z,100512.45
2019-05-29T14:03:40.401Z,100508.05
2019-05-29T14:06:10.761Z,100511.75
2019-05-29T14:08:41.098Z,100514.16
2019-05-29T14:11:12.343Z,100510.30
2019-05-29T14:13:42.753Z,100512.00
2019-05-29T14:16:13.116Z,100514.78
2019-05-29T14:18:43.490Z,100511.71
2019-05-29T14:21:13.749Z,100509.20
2019-05-29T14:23:44.139Z,100510.59
2019-05-29T14:26:14.867Z,100509.79
2019-05-29T14:28:45.146Z,100513.19
2019-05-29T14:31:15.425Z,100515.63
2019-05-29T14:36:21.573Z,100511.70
2019-05-29T14:38:51.800Z,100509.48
2019-05-29T14:41:22.030Z,100506.80
2019-05-29T14:43:52.269Z,100507.30
2019-05-29T14:46:22.482Z,100508.45
2019-05-29T14:48:52.780Z,100512.33
2019-05-29T14:51:23.006Z,100504.65
2019-05-29T14:53:53.212Z,100508.22
2019-05-29T14:56:23.497Z,100507.86
2019-05-29T14:58:53.776Z,100503.75
2019-05-29T15:01:23.993Z,100505.77
2019-05-29T15:03:54.197Z,100506.75
2019-05-29T15:06:24.437Z,100508.73
2019-05-29T15:08:54.632Z,100508.65
2019-05-29T15:11:24.865Z,100515.05
2019-05-29T15:13:55.069Z,100512.19
2019-05-29T15:16:25.289Z,100511.00
2019-05-29T15:18:55.662Z,100512.19
2019-05-29T15:21:26.716Z,100512.44
2019-05-29T15:23:56.926Z,100512.73
2019-05-29T15:26:27.148Z,100510.47
2019-05-29T15:28:57.361Z,100517.44
2019-05-29T15:31:27.587Z,100518.30
2019-05-29T15:33:57.859Z,100520.41
2019-05-29T15:36:28.074Z,100519.11
2019-05-29T15:38:58.295Z,100519.38
2019-05-29T15:41:29.618Z,100519.66
2019-05-29T15:43:59.831Z,100520.84
2019-05-29T15:46:30.065Z,100524.83
2019-05-29T15:49:00.303Z,100523.36
2019-05-29T15:51:30.556Z,100519.50
2019-05-29T15:54:00.822Z,100527.42
2019-05-29T15:56:31.111Z,100521.54
2019-05-29T15:59:01.327Z,100516.95
2019-05-29T16:01:31.642Z,100521.83
2019-05-29T16:04:01.830Z,100518.64
2019-05-29T16:06:32.058Z,100517.80
2019-05-29T16:09:02.263Z,100515.53
2019-05-29T16:11:33.438Z,100514.27
2019-05-29T16:14:03.711Z,100510.70
2019-05-29T16:16:34.018Z,100508.13
2019-05-29T16:19:04.286Z,100504.22
2019-05-29T16:21:34.573Z,100505.22
2019-05-29T16:24:04.793Z,100505.13
2019-05-29T16:26:35.063Z,100506.98
2019-05-29T16:29:05.409Z,100512.31
2019-05-29T16:31:35.634Z,100517.47
2019-05-29T16:34:05.957Z,100512.59
2019-05-29T16:36:36.282Z,100521.37
2019-05-29T16:39:08.445Z,100515.70
2019-05-29T16:41:38.819Z,100518.37
2019-05-29T16:44:09.032Z,100523.03
2019-05-29T16:46:40.341Z,100525.97
2019-05-29T16:49:12.543Z,100526.97
2019-05-29T16:51:42.813Z,100529.27
2019-05-29T16:54:13.042Z,100535.87
2019-05-29T16:56:43.227Z,100537.22
2019-05-29T16:59:14.905Z,100539.03
2019-05-29T17:01:45.292Z,100535.72
2019-05-29T17:04:15.578Z,100541.70
2019-05-29T17:06:45.829Z,100543.43
2019-05-29T17:09:16.366Z,100540.28
2019-05-29T17:11:46.640Z,100542.55
2019-05-29T17:14:16.854Z,100546.92
2019-05-29T17:16:47.093Z,100541.04
2019-05-29T17:19:18.366Z,100546.59
2019-05-29T17:21:48.995Z,100546.34
2019-05-29T17:24:19.221Z,100548.58
2019-05-29T17:26:49.431Z,100550.76
2019-05-29T17:29:20.748Z,100553.28
2019-05-29T17:31:54.294Z,100553.92
2019-05-29T17:34:25.237Z,100553.50
2019-05-29T17:36:55.769Z,100555.10
2019-05-29T17:39:26.063Z,100560.06
2019-05-29T17:41:56.431Z,100560.19
2019-05-29T17:44:26.662Z,100558.38
2019-05-29T17:46:56.912Z,100560.41
2019-05-29T17:49:34.023Z,100564.86
2019-05-29T17:51:59.132Z,100563.42
2019-05-29T17:54:29.509Z,100564.16
2019-05-29T17:56:59.854Z,100568.64
2019-05-29T17:59:30.134Z,100571.20
2019-05-29T18:02:01.602Z,100570.83
2019-05-29T18:04:32.004Z,100569.36
2019-05-29T18:07:05.153Z,100571.95
2019-05-29T18:09:35.450Z,100578.97
2019-05-29T18:12:08.500Z,100580.84
2019-05-29T18:14:38.874Z,100589.55
2019-05-29T18:17:09.142Z,100586.64
2019-05-29T18:19:40.525Z,100589.44
2019-05-29T18:22:10.735Z,100597.14
2019-05-29T18:24:40.953Z,100603.18
2019-05-29T18:27:12.227Z,100605.42
2019-05-29T18:29:42.492Z,100605.91
2019-05-29T18:32:12.702Z,100609.72
2019-05-29T18:34:43.004Z,100613.77
2019-05-29T18:37:13.241Z,100611.83
2019-05-29T18:39:43.450Z,100613.66
2019-05-29T18:42:14.832Z,100618.30
2019-05-29T18:44:45.038Z,100616.43
2019-05-29T18:47:15.335Z,100621.06
2019-05-29T18:49:45.522Z,100620.28
2019-05-29T18:52:15.759Z,100619.05
2019-05-29T18:54:45.962Z,100621.76
2019-05-29T18:57:16.385Z,100624.32
2019-05-29T18:59:46.664Z,100628.20
2019-05-29T19:02:16.906Z,100631.15
2019-05-29T19:04:47.103Z,100637.28
2019-05-29T19:07:17.330Z,100643.42
2019-05-29T19:09:47.539Z,100644.23
2019-05-29T19:12:17.760Z,100649.66
2019-05-29T19:14:47.958Z,100654.66
2019-05-29T19:17:18.321Z,100662.80
2019-05-29T19:19:48.514Z,100663.14
2019-05-29T19:22:18.754Z,100664.78
2019-05-29T19:24:48.951Z,100672.98
2019-05-29T19:27:31.144Z,100684.37
2019-05-29T19:29:51.065Z,100687.92
2019-05-29T19:32:21.289Z,100689.72
2019-05-29T19:34:51.556Z,100690.64
2019-05-29T19:37:21.783Z,100696.77
2019-05-29T19:39:51.995Z,100698.67
2019-05-29T19:42:22.286Z,100703.38
2019-05-29T19:44:52.485Z,100710.38
2019-05-29T19:47:22.771Z,100711.13
2019-05-29T19:49:53.001Z,100712.17
2019-05-29T19:52:23.302Z,100714.70
2019-05-29T19:54:53.512Z,100720.98
2019-05-29T19:57:23.769Z,100719.66
2019-05-29T19:59:54.085Z,100724.23
2019-05-29T20:02:24.311Z,100730.66
2019-05-29T20:04:54.539Z,100735.26
2019-05-29T20:07:24.757Z,100740.06
2019-05-29T20:09:54.975Z,100737.02
2019-05-29T20:12:25.199Z,100736.75
2019-05-29T20:14:55.385Z,100745.20
2019-05-29T20:17:25.607Z,100747.75
2019-05-29T20:19:56.889Z,100758.13
2019-05-29T20:22:28.452Z,100758.20
2019-05-29T20:24:58.775Z,100760.44
2019-05-29T20:27:30.004Z,100754.88
2019-05-29T20:30:00.283Z,100761.48
2019-05-29T20:32:32.474Z,100759.77
2019-05-29T20:37:46.672Z,100769.09
2019-05-29T20:40:18.030Z,100768.85
2019-05-29T20:42:48.337Z,100770.29
2019-05-29T20:45:18.533Z,100776.00
2019-05-29T20:47:48.848Z,100777.40
2019-05-29T20:50:20.350Z,100779.10
2019-05-29T20:52:50.570Z,100785.84
2019-05-29T20:55:20.903Z,100784.03
2019-05-29T20:57:51.126Z,100783.79
2019-05-29T21:00:21.476Z,100783.45
2019-05-29T21:02:51.713Z,100788.32
2019-05-29T21:05:21.912Z,100790.47
2019-05-29T21:07:52.138Z,100789.56
2019-05-29T21:10:22.349Z,100791.22
2019-05-29T21:12:52.627Z,100794.01
2019-05-29T21:15:22.915Z,100798.20
2019-05-29T21:17:53.124Z,100801.77
2019-05-29T21:20:23.323Z,100804.59
2019-05-29T21:22:53.553Z,100800.39
2019-05-29T21:25:23.756Z,100800.34
2019-05-29T21:27:53.987Z,100796.41
2019-05-29T21:30:24.363Z,100805.32
2019-05-29T21:32:54.597Z,100805.67
2019-05-29T21:35:24.792Z,100805.41
2019-05-29T21:37:55.015Z,100804.62
2019-05-29T21:40:25.233Z,100808.73
2019-05-29T21:42:55.460Z,100804.62
2019-05-29T21:45:25.657Z,100813.19
2019-05-29T21:47:55.870Z,100814.27
2019-05-29T21:50:26.080Z,100816.69
2019-05-29T21:52:56.261Z,100817.26
2019-05-29T21:55:26.463Z,100820.61
2019-05-29T21:57:56.689Z,100829.95
2019-05-29T22:00:37.998Z,100829.73
2019-05-29T22:03:09.584Z,100830.75
2019-05-29T22:05:40.529Z,100834.42
2019-05-29T22:08:10.946Z,100840.63
2019-05-29T22:10:41.187Z,100840.83
2019-05-29T22:13:11.425Z,100840.00
2019-05-29T22:15:41.657Z,100841.64
2019-05-29T22:18:11.919Z,100831.44
2019-05-29T22:20:42.234Z,100836.09
2019-05-29T22:23:12.447Z,100837.90
2019-05-29T22:25:42.687Z,100833.62
2019-05-29T22:28:12.893Z,100832.39
2019-05-29T22:30:43.111Z,100831.13
2019-05-29T22:33:13.407Z,100832.77
2019-05-29T22:35:43.682Z,100831.23
2019-05-29T22:38:14.971Z,100834.34
2019-05-29T22:40:45.199Z,100839.48
2019-05-29T22:43:15.400Z,100839.06
2019-05-29T22:45:45.688Z,100844.77
2019-05-29T22:48:15.878Z,100845.09
2019-05-29T22:50:46.102Z,100850.20
2019-05-29T22:53:16.297Z,100846.56
2019-05-29T22:55:46.528Z,100846.09
2019-05-29T22:58:16.722Z,100849.22
2019-05-29T23:00:46.942Z,100842.98
2019-05-29T23:03:17.204Z,100841.48
2019-05-29T23:05:47.546Z,100846.23
2019-05-29T23:08:17.860Z,100848.94
2019-05-29T23:10:48.085Z,100847.30
2019-05-29T23:13:18.294Z,100847.98
2019-05-29T23:15:48.589Z,100846.92
2019-05-29T23:18:18.777Z,100845.22
2019-05-29T23:20:49.008Z,100848.04
2019-05-29T23:23:19.201Z,100846.20
2019-05-29T23:25:49.422Z,100849.14
2019-05-29T23:28:19.628Z,100852.09
2019-05-29T23:30:49.824Z,100851.14
2019-05-29T23:33:20.040Z,100850.07
2019-05-29T23:35:50.234Z,100840.76
2019-05-29T23:38:20.471Z,100845.22
2019-05-29T23:40:50.765Z,100846.03
2019-05-29T23:43:20.990Z,100841.44
2019-05-29T23:45:51.202Z,100840.95
2019-05-29T23:48:21.413Z,100845.97
2019-05-29T23:50:51.623Z,100842.79
2019-05-29T23:53:21.981Z,100841.11
2019-05-29T23:55:53.832Z,100837.72
2019-05-29T23:58:24.119Z,100833.75
